Port Orford, Oregon
Current Conditions -  °F | °C
As of 1:56 PM on Sunday 21 Dec 2014 (Local Time) from KBOK Reporting Station
Light Rain Light Rain  
Wind Chill: 57°   Ceiling: 100
Heat Index: 57°   Visibility: 0mi
Dew Point: 57°   Wind: 3mph
Humidity: 100%   Direction: NA
Pressure: 30.26"   Gusts: NA
Location:  42.75°N, 124.5°W
Report Text: KBOK 212156Z AUTO VRB03KT M1/4SM -RA FG OVC001 14/14 A3026 RMK AO2 T01380138 P0000 SLP247
Loading
Personal Weather Stations






























Interactive Weather Map New forecast layout! Learn more

10-Day Weather Forecast

Advertisements
Track Severe Weather on mobile